createdAt,value
2019-05-19T00:00:06.385Z,83.01
2019-05-19T00:02:35.768Z,83.18
2019-05-19T00:05:05.409Z,83.41
2019-05-19T00:07:34.457Z,84.29
2019-05-19T00:10:03.908Z,84.49
2019-05-19T00:12:32.976Z,85.50
2019-05-19T00:15:02.393Z,85.05
2019-05-19T00:17:31.454Z,85.78
2019-05-19T00:20:00.904Z,85.19
2019-05-19T00:22:29.955Z,85.35
2019-05-19T00:25:02.491Z,85.32
2019-05-19T00:27:31.538Z,85.25
2019-05-19T00:30:00.553Z,85.31
2019-05-19T00:32:29.630Z,85.20
2019-05-19T00:34:58.672Z,85.04
2019-05-19T00:37:27.710Z,85.13
2019-05-19T00:39:56.762Z,85.02
2019-05-19T00:42:26.189Z,85.12
2019-05-19T00:44:55.300Z,84.96
2019-05-19T00:47:24.347Z,84.99
2019-05-19T00:49:53.394Z,84.97
2019-05-19T00:52:22.460Z,84.71
2019-05-19T00:54:51.582Z,84.58
2019-05-19T00:57:20.667Z,84.33
2019-05-19T00:59:50.697Z,84.42
2019-05-19T01:02:19.789Z,84.80
2019-05-19T01:04:49.876Z,85.33
2019-05-19T01:07:18.950Z,85.02
2019-05-19T01:09:48.379Z,85.30
2019-05-19T01:12:17.458Z,85.13
2019-05-19T01:14:46.503Z,85.26
2019-05-19T01:17:15.503Z,84.82
2019-05-19T01:19:55.689Z,84.47
2019-05-19T01:22:15.651Z,84.72
2019-05-19T01:24:44.695Z,84.63
2019-05-19T01:27:13.758Z,84.59
2019-05-19T01:29:42.783Z,83.75
2019-05-19T01:32:12.767Z,84.52
2019-05-19T01:34:41.876Z,84.80
2019-05-19T01:37:11.275Z,84.05
2019-05-19T01:39:40.594Z,82.56
2019-05-19T01:42:09.647Z,82.52
2019-05-19T01:44:38.691Z,82.22
2019-05-19T01:47:08.118Z,83.09
2019-05-19T01:49:37.883Z,83.29
2019-05-19T01:52:06.990Z,83.34
2019-05-19T01:54:36.300Z,82.72
2019-05-19T01:57:05.995Z,83.62
2019-05-19T01:59:35.037Z,85.33
2019-05-19T02:02:04.165Z,83.66
2019-05-19T02:04:33.244Z,83.60
2019-05-19T02:07:02.623Z,83.82
2019-05-19T02:09:32.004Z,84.63
2019-05-19T02:12:01.135Z,84.84
2019-05-19T02:14:30.177Z,85.56
2019-05-19T02:16:59.593Z,85.16
2019-05-19T02:19:28.650Z,84.90
2019-05-19T02:21:57.720Z,85.02
2019-05-19T02:24:27.113Z,84.78
2019-05-19T02:26:56.121Z,85.04
2019-05-19T02:29:25.482Z,85.17
2019-05-19T02:31:55.269Z,85.09
2019-05-19T02:34:24.675Z,84.71
2019-05-19T02:36:54.119Z,84.77
2019-05-19T02:39:23.573Z,84.89
2019-05-19T02:41:54.443Z,84.67
2019-05-19T02:44:23.583Z,85.25
2019-05-19T02:46:52.923Z,85.64
2019-05-19T02:49:22.387Z,85.96
2019-05-19T02:51:52.656Z,85.48
2019-05-19T02:54:21.971Z,86.13
2019-05-19T02:56:52.528Z,85.28
2019-05-19T02:59:23.250Z,85.34
2019-05-19T03:02:03.513Z,84.52
2019-05-19T03:04:33.581Z,84.43
2019-05-19T03:07:02.872Z,84.30
2019-05-19T03:09:32.257Z,83.69
2019-05-19T03:12:01.303Z,84.12
2019-05-19T03:14:30.319Z,84.29
2019-05-19T03:16:59.695Z,84.75
2019-05-19T03:19:28.719Z,84.94
2019-05-19T03:21:57.761Z,84.99
2019-05-19T03:24:26.775Z,85.09
2019-05-19T03:26:56.224Z,85.73
2019-05-19T03:29:30.493Z,85.27
2019-05-19T03:32:15.349Z,84.57
2019-05-19T03:34:44.732Z,85.03
2019-05-19T03:37:13.802Z,85.73
2019-05-19T03:39:42.894Z,84.93
2019-05-19T03:42:12.003Z,85.84
2019-05-19T03:44:41.042Z,85.22
2019-05-19T03:47:10.475Z,85.62
2019-05-19T03:49:40.144Z,85.81
2019-05-19T03:52:09.215Z,84.91
2019-05-19T03:54:38.230Z,85.22
2019-05-19T03:57:08.036Z,86.41
2019-05-19T03:59:37.153Z,86.25
2019-05-19T04:02:06.520Z,85.89
2019-05-19T04:04:35.933Z,86.80
2019-05-19T04:07:05.310Z,85.08
2019-05-19T04:09:34.372Z,87.01
2019-05-19T04:12:03.755Z,87.44
2019-05-19T04:14:32.844Z,87.63
2019-05-19T04:17:02.372Z,88.58
2019-05-19T04:19:32.951Z,88.99
2019-05-19T04:22:02.026Z,89.37
2019-05-19T04:24:31.099Z,89.67
2019-05-19T04:27:00.166Z,89.99
2019-05-19T04:29:29.615Z,90.99
2019-05-19T04:31:59.048Z,90.41
2019-05-19T04:34:28.466Z,90.93
2019-05-19T04:36:57.927Z,90.54
2019-05-19T04:39:27.005Z,91.08
2019-05-19T04:41:56.476Z,90.22
2019-05-19T04:44:26.287Z,90.86
2019-05-19T04:46:55.694Z,90.93
2019-05-19T04:49:25.066Z,91.01
2019-05-19T04:52:05.892Z,91.35
2019-05-19T04:54:25.255Z,90.42
2019-05-19T04:56:54.575Z,91.72
2019-05-19T04:59:23.577Z,91.74
2019-05-19T05:01:52.632Z,91.64
2019-05-19T05:04:21.664Z,92.26
2019-05-19T05:06:50.784Z,92.08
2019-05-19T05:09:19.848Z,92.27
2019-05-19T05:11:48.891Z,91.74
2019-05-19T05:14:17.956Z,91.82
2019-05-19T05:16:46.994Z,91.37
2019-05-19T05:19:16.045Z,90.86
2019-05-19T05:21:45.111Z,91.77
2019-05-19T05:24:14.405Z,90.94
2019-05-19T05:26:43.450Z,90.54
2019-05-19T05:29:12.565Z,89.54
2019-05-19T05:31:41.638Z,89.46
2019-05-19T05:34:10.758Z,89.61
2019-05-19T05:36:39.842Z,90.39
2019-05-19T05:39:10.021Z,90.69
2019-05-19T05:41:39.139Z,90.11
2019-05-19T05:44:08.529Z,90.78
2019-05-19T05:46:37.572Z,91.83
2019-05-19T05:49:06.737Z,92.17
2019-05-19T05:51:35.792Z,90.86
2019-05-19T05:54:05.143Z,91.38
2019-05-19T05:56:34.206Z,90.93
2019-05-19T05:59:03.240Z,91.32
2019-05-19T06:01:32.355Z,90.93
2019-05-19T06:04:01.508Z,91.08
2019-05-19T06:06:30.584Z,91.35
2019-05-19T06:08:59.979Z,91.70
2019-05-19T06:11:29.080Z,91.06
2019-05-19T06:13:58.126Z,91.51
2019-05-19T06:16:27.166Z,91.36
2019-05-19T06:18:56.943Z,91.08
2019-05-19T06:21:26.095Z,91.10
2019-05-19T06:23:55.157Z,91.42
2019-05-19T06:26:24.551Z,91.06
2019-05-19T06:28:53.912Z,89.98
2019-05-19T06:31:22.971Z,88.89
2019-05-19T06:33:52.487Z,89.67
2019-05-19T06:36:21.541Z,89.10
2019-05-19T06:38:50.721Z,90.02
2019-05-19T06:41:21.023Z,89.10
2019-05-19T06:43:50.414Z,89.12
2019-05-19T06:46:19.768Z,88.89
2019-05-19T06:48:48.869Z,88.24
2019-05-19T06:51:17.975Z,89.31
2019-05-19T06:53:47.114Z,88.52
2019-05-19T06:56:16.469Z,88.52
2019-05-19T06:58:45.566Z,89.97
2019-05-19T07:01:14.613Z,89.16
2019-05-19T07:03:44.067Z,90.02
2019-05-19T07:06:13.171Z,89.16
2019-05-19T07:08:42.541Z,89.41
2019-05-19T07:11:11.659Z,90.37
2019-05-19T07:13:40.695Z,89.37
2019-05-19T07:16:09.727Z,89.59
2019-05-19T07:18:38.811Z,87.18
2019-05-19T07:21:09.013Z,88.72
2019-05-19T07:23:38.332Z,89.05
2019-05-19T07:26:07.979Z,89.73
2019-05-19T07:28:37.013Z,89.76
2019-05-19T07:31:06.040Z,89.48
2019-05-19T07:33:35.539Z,89.73
2019-05-19T07:36:05.033Z,90.09
2019-05-19T07:38:34.097Z,89.98
2019-05-19T07:41:03.180Z,90.43
2019-05-19T07:43:32.211Z,91.10
2019-05-19T07:46:01.311Z,91.25
2019-05-19T07:48:30.745Z,90.79
2019-05-19T07:50:59.807Z,91.39
2019-05-19T07:53:42.188Z,91.19
2019-05-19T07:55:59.619Z,91.59
2019-05-19T07:58:29.551Z,92.40
2019-05-19T08:00:58.758Z,92.37
2019-05-19T08:03:27.839Z,93.31
2019-05-19T08:05:57.208Z,93.27
2019-05-19T08:08:26.307Z,93.60
2019-05-19T08:10:55.756Z,93.56
2019-05-19T08:13:24.818Z,93.84
2019-05-19T08:15:53.829Z,94.22
2019-05-19T08:18:22.857Z,94.03
2019-05-19T08:20:52.648Z,93.49
2019-05-19T08:23:22.452Z,93.53
2019-05-19T08:25:51.515Z,93.69
2019-05-19T08:28:20.556Z,93.13
2019-05-19T08:30:49.652Z,92.48
2019-05-19T08:33:19.479Z,92.75
2019-05-19T08:35:48.647Z,92.60
2019-05-19T08:38:17.662Z,92.83
2019-05-19T08:40:47.074Z,92.98
2019-05-19T08:43:16.456Z,93.82
2019-05-19T08:45:45.915Z,93.34
2019-05-19T08:48:14.938Z,92.91
2019-05-19T08:50:43.946Z,93.46
2019-05-19T08:53:13.309Z,92.70
2019-05-19T08:55:42.389Z,93.26
2019-05-19T08:58:11.489Z,93.91
2019-05-19T09:00:40.533Z,92.09
2019-05-19T09:03:09.981Z,92.31
2019-05-19T09:05:39.033Z,92.05
2019-05-19T09:08:08.442Z,91.95
2019-05-19T09:10:37.853Z,91.95
2019-05-19T09:13:07.210Z,91.04
2019-05-19T09:15:36.249Z,90.93
2019-05-19T09:18:05.302Z,89.92
2019-05-19T09:20:34.712Z,90.01
2019-05-19T09:23:04.251Z,90.76
2019-05-19T09:25:33.847Z,90.05
2019-05-19T09:28:03.244Z,90.63
2019-05-19T09:30:32.323Z,90.53
2019-05-19T09:33:01.474Z,91.94
2019-05-19T09:35:30.463Z,92.97
2019-05-19T09:37:59.515Z,91.39
2019-05-19T09:40:28.625Z,92.08
2019-05-19T09:42:58.360Z,92.52
2019-05-19T09:45:28.450Z,91.90
2019-05-19T09:47:57.544Z,91.92
2019-05-19T09:50:27.100Z,91.08
2019-05-19T09:52:56.176Z,90.78
2019-05-19T09:55:25.917Z,89.68
2019-05-19T09:57:55.120Z,89.74
2019-05-19T10:00:24.256Z,89.52
2019-05-19T10:02:53.426Z,88.54
2019-05-19T10:05:22.842Z,87.65
2019-05-19T10:07:51.923Z,87.45
2019-05-19T10:10:47.852Z,88.47
2019-05-19T10:13:16.883Z,87.76
2019-05-19T10:15:46.569Z,88.02
2019-05-19T10:18:15.611Z,88.28
2019-05-19T10:20:44.783Z,87.21
2019-05-19T10:23:13.846Z,86.63
2019-05-19T10:25:43.123Z,87.40
2019-05-19T10:28:12.214Z,83.65
2019-05-19T10:30:41.285Z,84.46
2019-05-19T10:33:10.370Z,82.89
2019-05-19T10:35:43.294Z,82.90
2019-05-19T10:38:12.511Z,83.24
2019-05-19T10:40:41.531Z,82.07
2019-05-19T10:43:11.245Z,83.99
2019-05-19T10:45:40.294Z,82.89
2019-05-19T10:48:09.384Z,84.50
2019-05-19T10:50:38.859Z,82.68
2019-05-19T10:53:07.921Z,82.03
2019-05-19T10:55:37.206Z,83.20
2019-05-19T10:58:06.642Z,80.80
2019-05-19T11:00:35.721Z,80.86
2019-05-19T11:03:05.575Z,80.33
2019-05-19T11:05:34.611Z,81.85
2019-05-19T11:08:03.702Z,79.59
2019-05-19T11:10:32.829Z,80.38
2019-05-19T11:13:02.124Z,79.90
2019-05-19T11:15:31.493Z,80.82
2019-05-19T11:18:00.587Z,79.89
2019-05-19T11:20:30.004Z,80.34
2019-05-19T11:22:59.865Z,79.51
2019-05-19T11:25:34.004Z,77.63
2019-05-19T11:28:00.267Z,77.28
2019-05-19T11:30:30.137Z,78.17
2019-05-19T11:32:59.197Z,77.56
2019-05-19T11:35:28.281Z,79.11
2019-05-19T11:37:57.700Z,78.07
2019-05-19T11:40:26.802Z,76.29
2019-05-19T11:42:56.104Z,76.43
2019-05-19T11:45:25.887Z,80.63
2019-05-19T11:47:55.330Z,78.49
2019-05-19T11:50:24.392Z,78.29
2019-05-19T11:52:53.449Z,79.85
2019-05-19T11:55:22.805Z,80.34
2019-05-19T11:57:51.918Z,80.48
2019-05-19T12:00:21.017Z,80.29
2019-05-19T12:02:50.079Z,81.32
2019-05-19T12:05:19.513Z,80.69
2019-05-19T12:07:48.880Z,80.47
2019-05-19T12:10:18.136Z,79.70
2019-05-19T12:12:47.729Z,79.92
2019-05-19T12:15:16.980Z,78.21
2019-05-19T12:17:46.129Z,79.95
2019-05-19T12:20:15.664Z,79.71
2019-05-19T12:22:44.757Z,80.17
2019-05-19T12:25:14.451Z,78.58
2019-05-19T12:27:46.693Z,80.87
2019-05-19T12:30:20.083Z,79.99
2019-05-19T12:32:49.388Z,83.66
2019-05-19T12:35:18.796Z,84.76
2019-05-19T12:37:48.173Z,82.75
2019-05-19T12:40:17.642Z,82.98
2019-05-19T12:42:46.667Z,81.73
2019-05-19T12:45:15.746Z,81.50
2019-05-19T12:47:44.849Z,82.04
2019-05-19T12:50:14.495Z,82.33
2019-05-19T12:52:43.583Z,82.80
2019-05-19T12:55:12.754Z,82.68
2019-05-19T12:57:41.867Z,81.46
2019-05-19T13:00:11.018Z,81.18
2019-05-19T13:02:40.104Z,78.40
2019-05-19T13:05:09.721Z,79.40
2019-05-19T13:07:38.897Z,79.00
2019-05-19T13:10:09.011Z,78.39
2019-05-19T13:12:38.064Z,78.47
2019-05-19T13:15:07.626Z,76.87
2019-05-19T13:17:37.004Z,76.47
2019-05-19T13:20:06.353Z,74.86
2019-05-19T13:22:35.454Z,76.02
2019-05-19T13:25:05.169Z,74.69
2019-05-19T13:27:34.743Z,73.50
2019-05-19T13:30:04.334Z,73.54
2019-05-19T13:32:33.531Z,73.77
2019-05-19T13:35:02.866Z,74.28
2019-05-19T13:37:32.309Z,74.19
2019-05-19T13:40:02.073Z,74.52
2019-05-19T13:42:31.413Z,75.20
2019-05-19T13:45:00.514Z,75.12
2019-05-19T13:47:29.624Z,76.22
2019-05-19T13:49:58.707Z,74.17
2019-05-19T13:52:27.855Z,74.60
2019-05-19T13:54:56.951Z,75.20
2019-05-19T13:57:26.535Z,73.96
2019-05-19T13:59:55.589Z,75.25
2019-05-19T14:02:24.947Z,74.87
2019-05-19T14:04:54.069Z,74.55
2019-05-19T14:07:23.422Z,74.88
2019-05-19T14:09:53.195Z,75.07
2019-05-19T14:12:22.312Z,74.43
2019-05-19T14:14:51.562Z,73.56
2019-05-19T14:17:21.238Z,73.82
2019-05-19T14:19:50.268Z,74.22
2019-05-19T14:22:19.723Z,74.65
2019-05-19T14:24:48.793Z,72.90
2019-05-19T14:27:29.225Z,73.49
2019-05-19T14:29:48.902Z,74.09
2019-05-19T14:32:18.029Z,74.11
2019-05-19T14:34:47.390Z,72.63
2019-05-19T14:37:16.703Z,73.26
2019-05-19T14:39:45.711Z,73.91
2019-05-19T14:42:18.207Z,73.80
2019-05-19T14:44:47.303Z,73.53
2019-05-19T14:47:16.491Z,73.36
2019-05-19T14:49:45.802Z,72.94
2019-05-19T14:52:14.868Z,73.34
2019-05-19T14:54:43.991Z,73.53
2019-05-19T14:57:13.118Z,73.85
2019-05-19T14:59:42.225Z,73.79
2019-05-19T15:02:11.790Z,74.25
2019-05-19T15:04:40.841Z,74.34
2019-05-19T15:07:09.995Z,73.29
2019-05-19T15:09:39.086Z,74.45
2019-05-19T15:12:08.208Z,73.09
2019-05-19T15:14:37.689Z,73.93
2019-05-19T15:17:07.003Z,73.93
2019-05-19T15:19:36.947Z,74.48
2019-05-19T15:22:06.270Z,74.51
2019-05-19T15:24:35.511Z,73.61
2019-05-19T15:27:04.721Z,73.20
2019-05-19T15:29:33.854Z,73.76
2019-05-19T15:32:03.311Z,74.22
2019-05-19T15:34:32.425Z,73.66
2019-05-19T15:37:01.496Z,73.42
2019-05-19T15:39:30.660Z,74.64
2019-05-19T15:41:59.731Z,75.39
2019-05-19T15:44:29.043Z,73.89
2019-05-19T15:46:58.408Z,73.85
2019-05-19T15:49:27.473Z,73.69
2019-05-19T15:52:02.822Z,73.76
2019-05-19T15:54:27.517Z,72.36
2019-05-19T15:56:56.585Z,73.07
2019-05-19T15:59:25.788Z,73.25
2019-05-19T16:01:54.869Z,74.33
2019-05-19T16:04:23.898Z,73.16
2019-05-19T16:06:53.274Z,73.59
2019-05-19T16:09:25.326Z,73.95
2019-05-19T16:11:54.415Z,74.22
2019-05-19T16:14:23.426Z,74.34
2019-05-19T16:16:52.767Z,75.66
2019-05-19T16:19:22.091Z,74.77
2019-05-19T16:21:51.159Z,75.07
2019-05-19T16:24:20.245Z,75.42
2019-05-19T16:26:49.588Z,75.21
2019-05-19T16:29:18.871Z,75.60
2019-05-19T16:31:48.790Z,76.40
2019-05-19T16:34:17.880Z,75.86
2019-05-19T16:36:47.308Z,76.91
2019-05-19T16:39:19.564Z,76.64
2019-05-19T16:41:49.397Z,76.26
2019-05-19T16:44:18.879Z,77.00
2019-05-19T16:46:48.056Z,76.50
2019-05-19T16:49:17.116Z,77.43
2019-05-19T16:51:46.548Z,77.18
2019-05-19T16:54:21.061Z,77.31
2019-05-19T16:56:50.151Z,77.57
2019-05-19T16:59:19.468Z,77.23
2019-05-19T17:01:48.820Z,76.90
2019-05-19T17:04:17.884Z,75.90
2019-05-19T17:06:47.244Z,76.33
2019-05-19T17:09:16.681Z,75.98
2019-05-19T17:11:45.900Z,76.85
2019-05-19T17:14:15.425Z,76.21
2019-05-19T17:16:44.637Z,76.16
2019-05-19T17:19:13.688Z,76.21
2019-05-19T17:21:42.754Z,75.09
2019-05-19T17:24:11.863Z,75.08
2019-05-19T17:26:40.906Z,74.61
2019-05-19T17:29:10.222Z,75.76
2019-05-19T17:31:39.588Z,75.44
2019-05-19T17:34:08.730Z,74.81
2019-05-19T17:36:38.067Z,74.63
2019-05-19T17:39:07.721Z,76.54
2019-05-19T17:41:36.841Z,75.56
2019-05-19T17:44:07.638Z,74.29
2019-05-19T17:46:36.756Z,74.67
2019-05-19T17:49:05.826Z,75.19
2019-05-19T17:51:35.097Z,74.94
2019-05-19T17:54:04.216Z,75.02
2019-05-19T17:56:33.257Z,75.20
2019-05-19T17:59:15.801Z,74.56
2019-05-19T18:01:33.687Z,75.32
2019-05-19T18:04:02.790Z,75.38
2019-05-19T18:06:32.220Z,72.57
2019-05-19T18:09:01.282Z,74.43
2019-05-19T18:11:30.733Z,72.68
2019-05-19T18:14:00.595Z,72.66
2019-05-19T18:16:29.684Z,73.25
2019-05-19T18:19:00.305Z,74.78
2019-05-19T18:21:29.747Z,74.42
2019-05-19T18:23:59.107Z,74.76
2019-05-19T18:26:28.132Z,75.13
2019-05-19T18:28:57.436Z,75.48
2019-05-19T18:31:26.489Z,75.51
2019-05-19T18:33:55.614Z,76.05
2019-05-19T18:36:24.867Z,75.90
2019-05-19T18:38:53.967Z,76.23
2019-05-19T18:41:23.033Z,75.95
2019-05-19T18:43:52.120Z,76.50
2019-05-19T18:46:22.815Z,76.77
2019-05-19T18:48:52.211Z,77.86
2019-05-19T18:51:21.589Z,78.67
2019-05-19T18:53:50.642Z,78.63
2019-05-19T18:56:19.812Z,78.90
2019-05-19T18:58:49.280Z,79.41
2019-05-19T19:01:18.694Z,79.61
2019-05-19T19:03:47.894Z,79.12
2019-05-19T19:06:16.912Z,79.32
2019-05-19T19:08:46.040Z,77.35
2019-05-19T19:11:15.523Z,77.99
2019-05-19T19:13:44.640Z,77.42
2019-05-19T19:16:13.726Z,77.33
2019-05-19T19:18:43.118Z,79.08
2019-05-19T19:21:12.205Z,79.00
2019-05-19T19:23:41.261Z,78.80
2019-05-19T19:26:10.377Z,79.68
2019-05-19T19:28:42.923Z,80.84
2019-05-19T19:31:12.817Z,81.23
2019-05-19T19:33:42.178Z,80.98
2019-05-19T19:36:14.734Z,81.39
2019-05-19T19:38:44.417Z,80.55
2019-05-19T19:41:13.842Z,80.83
2019-05-19T19:43:42.938Z,80.26
2019-05-19T19:46:12.061Z,80.98
2019-05-19T19:48:41.567Z,81.03
2019-05-19T19:51:10.605Z,81.50
2019-05-19T19:53:39.649Z,81.32
2019-05-19T19:56:08.893Z,81.61
2019-05-19T19:58:37.979Z,81.60
2019-05-19T20:01:07.110Z,81.52
2019-05-19T20:03:39.746Z,81.36
2019-05-19T20:06:07.145Z,81.29
2019-05-19T20:08:36.528Z,81.40
2019-05-19T20:11:05.577Z,82.00
2019-05-19T20:13:34.742Z,83.09
2019-05-19T20:16:03.786Z,81.45
2019-05-19T20:18:33.584Z,82.71
2019-05-19T20:21:03.441Z,82.67
2019-05-19T20:23:32.596Z,83.06
2019-05-19T20:26:05.898Z,83.27
2019-05-19T20:28:35.043Z,83.23
2019-05-19T20:31:04.575Z,83.21
2019-05-19T20:33:33.817Z,83.01
2019-05-19T20:36:03.266Z,83.07
2019-05-19T20:38:32.357Z,84.13
2019-05-19T20:41:01.438Z,83.89
2019-05-19T20:43:30.485Z,83.76
2019-05-19T20:46:00.500Z,84.73
2019-05-19T20:48:32.619Z,84.40
2019-05-19T20:51:00.566Z,84.59
2019-05-19T20:53:29.621Z,85.12
2019-05-19T20:55:58.759Z,84.94
2019-05-19T20:58:28.210Z,85.31
2019-05-19T21:00:57.302Z,85.87
2019-05-19T21:03:26.701Z,85.88
2019-05-19T21:05:56.129Z,85.92
2019-05-19T21:08:25.239Z,86.46
2019-05-19T21:10:54.261Z,86.19
2019-05-19T21:13:23.304Z,86.38
2019-05-19T21:15:52.432Z,85.69
2019-05-19T21:18:21.642Z,86.41
2019-05-19T21:20:50.670Z,86.76
2019-05-19T21:23:19.724Z,86.95
2019-05-19T21:25:49.276Z,87.51
2019-05-19T21:28:18.885Z,88.03
2019-05-19T21:30:48.054Z,86.89
2019-05-19T21:33:17.376Z,87.09
2019-05-19T21:35:46.460Z,88.56
2019-05-19T21:38:15.542Z,88.75
2019-05-19T21:40:45.005Z,87.51
2019-05-19T21:43:14.137Z,88.68
2019-05-19T21:45:43.490Z,88.37
2019-05-19T21:48:12.788Z,89.05
2019-05-19T21:50:41.867Z,88.87
2019-05-19T21:53:10.942Z,89.00
2019-05-19T21:55:42.854Z,89.07
2019-05-19T21:58:11.896Z,90.17
2019-05-19T22:00:41.353Z,90.29
2019-05-19T22:03:10.405Z,90.86
2019-05-19T22:05:52.592Z,90.75
2019-05-19T22:08:13.989Z,90.94
2019-05-19T22:10:43.529Z,90.73
2019-05-19T22:13:13.398Z,90.48
2019-05-19T22:15:42.431Z,90.79
2019-05-19T22:18:11.482Z,90.76
2019-05-19T22:20:40.896Z,90.86
2019-05-19T22:23:10.237Z,91.51
2019-05-19T22:25:39.636Z,91.62
2019-05-19T22:28:08.663Z,92.40
2019-05-19T22:30:37.693Z,90.77
2019-05-19T22:33:07.111Z,91.36
2019-05-19T22:35:36.134Z,91.77
2019-05-19T22:38:05.323Z,92.87
2019-05-19T22:40:34.637Z,92.54
2019-05-19T22:43:04.069Z,92.21
2019-05-19T22:45:33.879Z,92.50
2019-05-19T22:48:02.917Z,92.86
2019-05-19T22:50:31.925Z,92.22
2019-05-19T22:53:00.922Z,92.69
2019-05-19T22:55:30.347Z,92.93
2019-05-19T22:57:59.400Z,93.18
2019-05-19T23:00:29.244Z,94.08
2019-05-19T23:02:58.271Z,93.98
2019-05-19T23:05:27.420Z,94.12
2019-05-19T23:07:56.465Z,93.77
2019-05-19T23:10:25.526Z,93.49
2019-05-19T23:12:54.543Z,94.08
2019-05-19T23:15:23.817Z,93.66
2019-05-19T23:17:52.800Z,93.91
2019-05-19T23:20:21.862Z,94.20
2019-05-19T23:22:51.189Z,93.85
2019-05-19T23:25:20.268Z,93.79
2019-05-19T23:27:49.583Z,94.65
2019-05-19T23:30:18.745Z,95.20
2019-05-19T23:32:47.718Z,95.35
2019-05-19T23:35:16.841Z,95.52
2019-05-19T23:37:45.910Z,95.25
2019-05-19T23:40:15.247Z,95.33
2019-05-19T23:42:44.289Z,94.98
2019-05-19T23:45:14.014Z,94.74
2019-05-19T23:47:43.370Z,94.82
2019-05-19T23:50:12.925Z,95.14
2019-05-19T23:52:41.973Z,94.63
2019-05-19T23:55:10.999Z,94.66
2019-05-19T23:57:40.050Z,94.63
